createdAt,value
2018-03-07T00:01:06.309Z,99.90
2018-03-07T00:03:35.917Z,99.90
2018-03-07T00:06:04.760Z,99.90
2018-03-07T00:08:33.610Z,99.90
2018-03-07T00:11:02.460Z,99.90
2018-03-07T00:13:32.069Z,99.90
2018-03-07T00:16:01.672Z,99.90
2018-03-07T00:18:31.278Z,99.90
2018-03-07T00:21:00.893Z,99.90
2018-03-07T00:23:30.498Z,99.90
2018-03-07T00:26:00.105Z,99.90
2018-03-07T00:28:29.714Z,99.90
2018-03-07T00:30:59.318Z,99.90
2018-03-07T00:33:28.963Z,99.90
2018-03-07T00:35:57.783Z,99.90
2018-03-07T00:38:26.613Z,99.90
2018-03-07T00:40:55.473Z,99.90
2018-03-07T00:43:24.317Z,99.90
2018-03-07T00:45:53.148Z,99.90
2018-03-07T00:48:21.983Z,99.90
2018-03-07T00:50:50.842Z,99.90
2018-03-07T00:53:20.438Z,99.90
2018-03-07T00:55:49.292Z,99.90
2018-03-07T00:58:18.122Z,99.90
2018-03-07T01:00:47.059Z,99.90
2018-03-07T01:03:15.888Z,99.90
2018-03-07T01:05:45.517Z,99.90
2018-03-07T01:08:14.373Z,99.90
2018-03-07T01:10:43.998Z,99.90
2018-03-07T01:13:13.614Z,99.90
2018-03-07T01:15:42.431Z,99.90
2018-03-07T01:18:11.314Z,99.90
2018-03-07T01:20:40.159Z,99.90
2018-03-07T01:23:09.768Z,99.90
2018-03-07T01:25:39.367Z,99.90
2018-03-07T01:28:08.987Z,99.90
2018-03-07T01:30:38.585Z,99.90
2018-03-07T01:33:08.193Z,99.90
2018-03-07T01:35:37.827Z,99.90
2018-03-07T01:38:06.672Z,99.90
2018-03-07T01:40:35.506Z,99.90
2018-03-07T01:43:04.360Z,99.90
2018-03-07T01:45:33.985Z,99.90
2018-03-07T01:48:02.817Z,99.90
2018-03-07T01:50:31.666Z,99.90
2018-03-07T01:53:01.302Z,99.90
2018-03-07T01:55:30.137Z,99.90
2018-03-07T01:57:59.754Z,99.90
2018-03-07T02:00:29.902Z,99.90
2018-03-07T02:02:59.486Z,99.90
2018-03-07T02:05:29.114Z,99.90
2018-03-07T02:07:57.990Z,99.90
2018-03-07T02:10:27.592Z,99.90
2018-03-07T02:12:57.219Z,99.90
2018-03-07T02:15:26.062Z,99.90
2018-03-07T02:17:54.902Z,99.90
2018-03-07T02:20:23.754Z,99.90
2018-03-07T02:22:53.375Z,99.90
2018-03-07T02:25:22.986Z,99.90
2018-03-07T02:27:51.813Z,99.90
2018-03-07T02:30:20.681Z,99.90
2018-03-07T02:32:49.538Z,99.90
2018-03-07T02:35:18.359Z,99.90
2018-03-07T02:37:47.197Z,99.90
2018-03-07T02:40:16.036Z,99.90
2018-03-07T02:42:44.889Z,99.90
2018-03-07T02:45:13.728Z,99.90
2018-03-07T02:47:42.557Z,99.90
2018-03-07T02:50:11.381Z,99.90
2018-03-07T02:52:40.226Z,99.90
2018-03-07T02:55:09.072Z,99.90
2018-03-07T02:57:38.681Z,99.90
2018-03-07T03:00:08.318Z,99.90
2018-03-07T03:02:37.157Z,99.90
2018-03-07T03:05:06.003Z,99.90
2018-03-07T03:07:34.858Z,99.90
2018-03-07T03:10:04.465Z,99.90
2018-03-07T03:12:34.084Z,99.90
2018-03-07T03:15:02.952Z,99.90
2018-03-07T03:17:31.834Z,99.90
2018-03-07T03:20:00.665Z,99.90
2018-03-07T03:22:29.481Z,99.90
2018-03-07T03:24:58.315Z,99.90
2018-03-07T03:27:27.921Z,99.90
2018-03-07T03:29:57.570Z,99.90
2018-03-07T03:32:27.298Z,99.90
2018-03-07T03:34:56.153Z,99.90
2018-03-07T03:37:25.002Z,99.90
2018-03-07T03:39:53.854Z,99.90
2018-03-07T03:42:22.790Z,99.90
2018-03-07T03:44:51.593Z,99.90
2018-03-07T03:47:21.222Z,99.90
2018-03-07T03:49:50.172Z,99.90
2018-03-07T03:52:19.011Z,99.90
2018-03-07T03:54:48.767Z,99.90
2018-03-07T03:57:17.666Z,99.90
2018-03-07T03:59:47.327Z,99.90
2018-03-07T04:02:16.170Z,99.90
2018-03-07T04:04:45.778Z,99.90
2018-03-07T04:07:15.422Z,99.90
2018-03-07T04:09:44.294Z,99.90
2018-03-07T04:12:13.142Z,99.90
2018-03-07T04:14:41.983Z,99.90
2018-03-07T04:17:11.185Z,99.90
2018-03-07T04:19:40.030Z,99.90
2018-03-07T04:22:09.642Z,99.90
2018-03-07T04:24:39.252Z,99.90
2018-03-07T04:27:08.891Z,99.90
2018-03-07T04:29:38.717Z,99.90
2018-03-07T04:32:07.564Z,99.90
2018-03-07T04:34:37.161Z,99.90
2018-03-07T04:37:06.778Z,99.90
2018-03-07T04:39:36.381Z,99.90
2018-03-07T04:42:05.998Z,99.90
2018-03-07T04:44:35.626Z,99.90
2018-03-07T04:47:04.799Z,99.90
2018-03-07T04:49:34.437Z,99.90
2018-03-07T04:52:03.275Z,99.90
2018-03-07T04:54:32.122Z,99.90
2018-03-07T04:57:00.974Z,99.90
2018-03-07T04:59:30.590Z,99.90
2018-03-07T05:01:59.422Z,99.90
2018-03-07T05:04:28.266Z,99.90
2018-03-07T05:06:57.611Z,99.90
2018-03-07T05:09:26.592Z,99.90
2018-03-07T05:11:55.413Z,99.90
2018-03-07T05:14:24.470Z,99.90
2018-03-07T05:16:53.323Z,99.90
2018-03-07T05:19:22.933Z,99.90
2018-03-07T05:21:52.541Z,99.90
2018-03-07T05:24:22.174Z,99.90
2018-03-07T05:26:51.759Z,99.90
2018-03-07T05:29:21.394Z,99.90
2018-03-07T05:31:50.242Z,99.90
2018-03-07T05:34:19.862Z,99.90
2018-03-07T05:36:49.461Z,99.90
2018-03-07T05:39:19.078Z,99.90
2018-03-07T05:41:48.706Z,99.90
2018-03-07T05:44:17.545Z,99.90
2018-03-07T05:46:46.396Z,99.90
2018-03-07T05:49:15.225Z,99.90
2018-03-07T05:51:44.071Z,99.90
2018-03-07T05:54:13.756Z,99.90
2018-03-07T05:56:44.088Z,99.90
2018-03-07T05:59:12.923Z,99.90
2018-03-07T06:01:41.758Z,99.90
2018-03-07T06:04:10.911Z,99.90
2018-03-07T06:06:39.759Z,99.90
2018-03-07T06:09:08.613Z,99.90
2018-03-07T06:11:38.222Z,99.90
2018-03-07T06:14:07.816Z,99.90
2018-03-07T06:16:37.436Z,99.90
2018-03-07T06:19:07.052Z,99.90
2018-03-07T06:21:36.693Z,99.90
2018-03-07T06:24:05.513Z,99.90
2018-03-07T06:26:34.353Z,99.90
2018-03-07T06:29:03.195Z,99.90
2018-03-07T06:31:32.039Z,99.90
2018-03-07T06:34:00.925Z,99.90
2018-03-07T06:36:30.096Z,99.90
2018-03-07T06:38:59.722Z,99.90
2018-03-07T06:41:28.554Z,99.90
2018-03-07T06:43:57.414Z,99.90
2018-03-07T06:46:26.245Z,99.90
2018-03-07T06:48:55.078Z,99.90
2018-03-07T06:51:23.916Z,99.90
2018-03-07T06:53:52.770Z,99.90
2018-03-07T06:56:22.294Z,99.90
2018-03-07T06:58:51.141Z,99.90
2018-03-07T07:01:20.411Z,99.90
2018-03-07T07:03:49.244Z,99.90
2018-03-07T07:06:18.095Z,99.90
2018-03-07T07:08:46.955Z,99.90
2018-03-07T07:11:16.553Z,99.90
2018-03-07T07:13:47.417Z,99.90
2018-03-07T07:16:17.051Z,99.90
2018-03-07T07:18:45.968Z,99.90
2018-03-07T07:21:14.814Z,99.90
2018-03-07T07:23:43.648Z,99.90
2018-03-07T07:26:13.487Z,99.90
2018-03-07T07:28:42.660Z,99.90
2018-03-07T07:31:11.510Z,99.90
2018-03-07T07:33:40.343Z,99.90
2018-03-07T07:36:09.183Z,99.90
2018-03-07T07:38:38.031Z,99.90
2018-03-07T07:41:07.652Z,99.90
2018-03-07T07:43:37.262Z,99.90
2018-03-07T07:46:06.886Z,99.90
2018-03-07T07:48:35.734Z,99.90
2018-03-07T07:51:06.081Z,99.90
2018-03-07T07:53:35.690Z,99.90
2018-03-07T07:56:05.290Z,99.90
2018-03-07T07:58:34.154Z,99.90
2018-03-07T08:01:03.747Z,99.90
2018-03-07T08:03:32.596Z,99.90
2018-03-07T08:06:01.434Z,99.90
2018-03-07T08:08:31.059Z,99.90
2018-03-07T08:11:01.285Z,99.90
2018-03-07T08:13:30.198Z,99.90
2018-03-07T08:15:59.008Z,99.90
2018-03-07T08:18:27.867Z,99.90
2018-03-07T08:20:56.711Z,99.90
2018-03-07T08:23:26.473Z,99.90
2018-03-07T08:25:55.323Z,99.90
2018-03-07T08:28:24.973Z,99.90
2018-03-07T08:30:53.808Z,99.90
2018-03-07T08:33:22.644Z,99.90
2018-03-07T08:35:51.502Z,99.90
2018-03-07T08:38:21.106Z,99.90
2018-03-07T08:40:50.736Z,99.90
2018-03-07T08:43:19.562Z,99.90
2018-03-07T08:45:48.534Z,99.90
2018-03-07T08:48:17.393Z,99.90
2018-03-07T08:50:46.588Z,99.90
2018-03-07T08:53:16.231Z,99.90
2018-03-07T08:55:45.080Z,99.90
2018-03-07T08:58:14.695Z,99.90
2018-03-07T09:00:43.563Z,99.90
2018-03-07T09:03:12.403Z,99.90
2018-03-07T09:05:41.243Z,99.90
2018-03-07T09:08:10.865Z,99.90
2018-03-07T09:10:39.773Z,99.90
2018-03-07T09:13:08.622Z,99.90
2018-03-07T09:15:38.229Z,99.90
2018-03-07T09:18:07.862Z,99.90
2018-03-07T09:20:37.013Z,99.90
2018-03-07T09:23:05.864Z,99.90
2018-03-07T09:25:35.326Z,99.90
2018-03-07T09:28:04.934Z,99.90
2018-03-07T09:30:34.553Z,99.90
2018-03-07T09:33:04.161Z,99.90
2018-03-07T09:35:33.791Z,99.90
2018-03-07T09:38:02.637Z,99.90
2018-03-07T09:40:32.262Z,99.90
2018-03-07T09:43:01.895Z,99.90
2018-03-07T09:45:30.740Z,99.90
2018-03-07T09:48:00.358Z,99.90
2018-03-07T09:50:30.018Z,99.90
2018-03-07T09:52:59.679Z,99.90
2018-03-07T09:55:28.562Z,99.90
2018-03-07T09:57:58.178Z,99.90
2018-03-07T10:00:27.029Z,99.90
2018-03-07T10:02:55.874Z,99.90
2018-03-07T10:05:24.746Z,99.90
2018-03-07T10:07:53.578Z,99.90
2018-03-07T10:10:22.469Z,99.80
2018-03-07T10:12:51.315Z,95.20
2018-03-07T10:15:20.166Z,91.70
2018-03-07T10:17:48.995Z,92.60
2018-03-07T10:20:18.645Z,93.90
2018-03-07T10:22:48.055Z,93.90
2018-03-07T10:25:17.225Z,95.40
2018-03-07T10:27:46.079Z,96.70
2018-03-07T10:30:16.439Z,95.30
2018-03-07T10:32:45.293Z,95.30
2018-03-07T10:35:14.173Z,96.10
2018-03-07T10:37:43.017Z,97.30
2018-03-07T10:40:11.861Z,98.10
2018-03-07T10:42:41.504Z,97.20
2018-03-07T10:45:11.121Z,96.80
2018-03-07T10:47:40.010Z,96.70
2018-03-07T10:50:08.858Z,98.00
2018-03-07T10:52:37.720Z,99.70
2018-03-07T10:55:06.554Z,99.90
2018-03-07T10:57:36.162Z,99.90
2018-03-07T11:00:05.809Z,99.90
2018-03-07T11:02:35.430Z,99.90
2018-03-07T11:05:05.931Z,99.90
2018-03-07T11:07:35.565Z,99.90
2018-03-07T11:10:04.418Z,99.90
2018-03-07T11:12:34.029Z,99.90
2018-03-07T11:15:03.666Z,99.90
2018-03-07T11:17:32.532Z,99.90
2018-03-07T11:20:02.170Z,99.90
2018-03-07T11:22:31.030Z,99.90
2018-03-07T11:25:00.671Z,99.90
2018-03-07T11:27:30.396Z,99.90
2018-03-07T11:29:59.232Z,99.90
2018-03-07T11:32:28.838Z,99.90
2018-03-07T11:34:58.482Z,99.90
2018-03-07T11:37:27.330Z,99.90
2018-03-07T11:39:56.525Z,99.90
2018-03-07T11:42:26.134Z,99.90
2018-03-07T11:44:55.773Z,99.90
2018-03-07T11:47:24.620Z,99.90
2018-03-07T11:49:54.284Z,99.90
2018-03-07T11:52:23.119Z,99.90
2018-03-07T11:54:53.361Z,99.90
2018-03-07T11:57:23.662Z,99.90
2018-03-07T11:59:52.549Z,99.90
2018-03-07T12:02:21.406Z,99.90
2018-03-07T12:04:50.877Z,99.90
2018-03-07T12:07:19.778Z,99.90
2018-03-07T12:09:48.633Z,99.90
2018-03-07T12:12:18.260Z,99.90
2018-03-07T12:14:47.108Z,99.90
2018-03-07T12:17:16.743Z,99.90
2018-03-07T12:19:45.594Z,99.90
2018-03-07T12:22:15.247Z,99.90
2018-03-07T12:24:44.332Z,99.90
2018-03-07T12:27:13.188Z,99.90
2018-03-07T12:29:42.809Z,99.90
2018-03-07T12:32:12.434Z,99.90
2018-03-07T12:34:41.295Z,99.90
2018-03-07T12:37:10.130Z,99.90
2018-03-07T12:39:38.996Z,99.90
2018-03-07T12:42:08.619Z,99.90
2018-03-07T12:44:37.458Z,99.90
2018-03-07T12:47:07.107Z,99.90
2018-03-07T12:49:35.971Z,99.90
2018-03-07T12:52:05.613Z,99.90
2018-03-07T12:54:34.502Z,99.90
2018-03-07T12:57:03.308Z,99.90
2018-03-07T12:59:32.966Z,99.90
2018-03-07T13:02:02.051Z,99.90
2018-03-07T13:04:31.694Z,99.90
2018-03-07T13:07:00.530Z,99.90
2018-03-07T13:09:30.141Z,99.90
2018-03-07T13:11:59.751Z,99.90
2018-03-07T13:14:28.592Z,99.90
2018-03-07T13:16:57.425Z,99.90
2018-03-07T13:19:27.040Z,99.90
2018-03-07T13:21:56.592Z,99.90
2018-03-07T13:24:25.453Z,99.90
2018-03-07T13:26:54.298Z,99.90
2018-03-07T13:29:23.138Z,99.90
2018-03-07T13:31:51.971Z,99.90
2018-03-07T13:34:20.810Z,99.90
2018-03-07T13:36:49.643Z,99.90
2018-03-07T13:39:18.492Z,99.90
2018-03-07T13:41:47.340Z,99.90
2018-03-07T13:44:19.015Z,99.90
2018-03-07T13:46:48.637Z,99.90
2018-03-07T13:49:17.470Z,99.90
2018-03-07T13:51:46.315Z,99.90
2018-03-07T13:54:15.166Z,99.90
2018-03-07T13:56:44.006Z,99.90
2018-03-07T13:59:12.846Z,99.90
2018-03-07T14:01:42.783Z,99.90
2018-03-07T14:04:12.394Z,99.90
2018-03-07T14:06:41.255Z,99.90
2018-03-07T14:09:10.854Z,99.90
2018-03-07T14:11:40.711Z,99.90
2018-03-07T14:14:09.543Z,99.90
2018-03-07T14:16:38.402Z,99.90
2018-03-07T14:19:07.236Z,99.90
2018-03-07T14:21:37.773Z,99.90
2018-03-07T14:24:07.354Z,99.90
2018-03-07T14:26:36.260Z,99.90
2018-03-07T14:29:05.514Z,99.90
2018-03-07T14:31:34.389Z,99.90
2018-03-07T14:34:03.237Z,99.90
2018-03-07T14:36:33.294Z,99.90
2018-03-07T14:39:02.127Z,99.90
2018-03-07T14:41:31.754Z,99.90
2018-03-07T14:44:00.604Z,99.90
2018-03-07T14:46:29.433Z,99.90
2018-03-07T14:48:59.129Z,99.90
2018-03-07T14:51:27.976Z,99.90
2018-03-07T14:53:56.859Z,99.90
2018-03-07T14:56:25.714Z,99.90
2018-03-07T14:58:55.311Z,99.90
2018-03-07T15:01:24.162Z,99.90
2018-03-07T15:03:53.006Z,99.90
2018-03-07T15:06:21.830Z,99.90
2018-03-07T15:08:50.686Z,99.90
2018-03-07T15:11:20.287Z,99.90
2018-03-07T15:13:49.898Z,99.90
2018-03-07T15:16:19.521Z,99.90
2018-03-07T15:18:48.369Z,99.90
2018-03-07T15:21:17.195Z,99.90
2018-03-07T15:23:46.059Z,99.90
2018-03-07T15:26:14.888Z,99.90
2018-03-07T15:28:45.465Z,99.90
2018-03-07T15:31:14.465Z,99.90
2018-03-07T15:33:44.074Z,99.90
2018-03-07T15:36:14.223Z,99.90
2018-03-07T15:38:43.644Z,99.90
2018-03-07T15:41:12.522Z,99.90
2018-03-07T15:43:41.402Z,99.90
2018-03-07T15:46:11.047Z,99.90
2018-03-07T15:48:39.881Z,99.90
2018-03-07T15:51:09.518Z,99.90
2018-03-07T15:53:38.402Z,99.90
2018-03-07T15:56:07.211Z,99.90
2018-03-07T15:58:36.056Z,99.90
2018-03-07T16:01:05.024Z,99.90
2018-03-07T16:03:35.505Z,99.90
2018-03-07T16:06:05.110Z,99.90
2018-03-07T16:08:34.887Z,99.90
2018-03-07T16:11:03.741Z,99.90
2018-03-07T16:13:33.360Z,99.90
2018-03-07T16:16:02.173Z,99.90
2018-03-07T16:18:31.030Z,99.90
2018-03-07T16:20:59.906Z,99.90
2018-03-07T16:23:30.350Z,99.90
2018-03-07T16:25:59.196Z,99.90
2018-03-07T16:28:28.071Z,99.90
2018-03-07T16:30:56.884Z,99.90
2018-03-07T16:33:25.840Z,99.90
2018-03-07T16:35:54.722Z,99.90
2018-03-07T16:38:23.573Z,99.90
2018-03-07T16:40:53.202Z,99.90
2018-03-07T16:43:22.027Z,99.90
2018-03-07T16:45:50.858Z,99.90
2018-03-07T16:48:20.460Z,99.90
2018-03-07T16:50:50.103Z,99.90
2018-03-07T16:53:19.749Z,99.90
2018-03-07T16:55:48.598Z,99.90
2018-03-07T16:58:17.434Z,99.90
2018-03-07T17:00:46.289Z,99.90
2018-03-07T17:03:15.150Z,99.90
2018-03-07T17:05:44.001Z,99.90
2018-03-07T17:08:12.838Z,99.90
2018-03-07T17:10:41.682Z,99.90
2018-03-07T17:13:11.516Z,99.90
2018-03-07T17:15:40.392Z,99.90
2018-03-07T17:18:09.232Z,99.90
2018-03-07T17:20:38.083Z,99.90
2018-03-07T17:23:06.914Z,99.90
2018-03-07T17:25:35.765Z,99.90
2018-03-07T17:28:05.356Z,99.90
2018-03-07T17:30:34.196Z,99.90
2018-03-07T17:33:03.852Z,99.90
2018-03-07T17:35:32.699Z,99.90
2018-03-07T17:38:02.334Z,99.90
2018-03-07T17:40:31.179Z,99.90
2018-03-07T17:43:00.023Z,99.90
2018-03-07T17:45:28.873Z,99.90
2018-03-07T17:47:57.844Z,99.90
2018-03-07T17:50:26.660Z,99.90
2018-03-07T17:52:56.273Z,99.90
2018-03-07T17:55:25.879Z,99.90
2018-03-07T17:57:56.382Z,99.90
2018-03-07T18:00:25.239Z,99.90
2018-03-07T18:02:54.080Z,99.90
2018-03-07T18:05:22.920Z,99.90
2018-03-07T18:07:51.769Z,99.90
2018-03-07T18:10:21.370Z,99.90
2018-03-07T18:12:50.230Z,99.90
2018-03-07T18:15:19.506Z,99.90
2018-03-07T18:17:48.362Z,99.90
2018-03-07T18:20:17.221Z,99.90
2018-03-07T18:22:46.045Z,99.90
2018-03-07T18:25:14.900Z,99.90
2018-03-07T18:27:44.512Z,99.90
2018-03-07T18:30:14.132Z,99.90
2018-03-07T18:32:43.734Z,99.90
2018-03-07T18:35:13.334Z,99.90
2018-03-07T18:37:42.954Z,99.90
2018-03-07T18:40:11.770Z,99.90
2018-03-07T18:42:40.636Z,99.90
2018-03-07T18:45:09.505Z,99.90
2018-03-07T18:47:39.138Z,99.90
2018-03-07T18:50:07.966Z,99.90
2018-03-07T18:52:36.853Z,99.90
2018-03-07T18:55:05.702Z,99.90
2018-03-07T18:57:34.612Z,99.90
2018-03-07T19:00:04.152Z,99.90
2018-03-07T19:02:33.033Z,99.90
2018-03-07T19:05:01.928Z,99.90
2018-03-07T19:07:30.875Z,99.90
2018-03-07T19:09:59.762Z,99.90
2018-03-07T19:12:29.446Z,99.90
2018-03-07T19:14:58.249Z,99.90
2018-03-07T19:17:27.891Z,99.90
2018-03-07T19:19:56.950Z,99.90
2018-03-07T19:22:26.576Z,99.90
2018-03-07T19:24:55.443Z,99.90
2018-03-07T19:27:25.238Z,99.90
2018-03-07T19:29:54.205Z,99.90
2018-03-07T19:32:23.342Z,99.90
2018-03-07T19:34:52.180Z,99.90
2018-03-07T19:37:21.900Z,99.90
2018-03-07T19:39:50.993Z,99.90
2018-03-07T19:42:19.871Z,99.90
2018-03-07T19:44:48.755Z,99.90
2018-03-07T19:47:18.382Z,99.90
2018-03-07T19:49:47.361Z,99.90
2018-03-07T19:52:16.194Z,99.90
2018-03-07T19:54:45.838Z,99.90
2018-03-07T19:57:14.715Z,99.90
2018-03-07T19:59:44.345Z,99.90
2018-03-07T20:02:13.202Z,99.90
2018-03-07T20:04:42.828Z,99.90
2018-03-07T20:07:11.686Z,99.90
2018-03-07T20:09:40.567Z,99.90
2018-03-07T20:12:09.445Z,99.90
2018-03-07T20:14:39.066Z,99.90
2018-03-07T20:17:07.909Z,99.90
2018-03-07T20:19:36.754Z,99.90
2018-03-07T20:22:05.622Z,99.90
2018-03-07T20:24:35.254Z,99.90
2018-03-07T20:27:04.123Z,99.90
2018-03-07T20:29:32.960Z,99.90
2018-03-07T20:32:01.869Z,99.90
2018-03-07T20:34:30.846Z,99.90
2018-03-07T20:36:59.664Z,99.90
2018-03-07T20:39:29.628Z,99.90
2018-03-07T20:41:58.472Z,99.90
2018-03-07T20:44:28.084Z,99.90
2018-03-07T20:46:57.704Z,99.90
2018-03-07T20:49:26.577Z,99.90
2018-03-07T20:51:56.206Z,99.90
2018-03-07T20:54:25.093Z,99.90
2018-03-07T20:56:53.943Z,99.90
2018-03-07T20:59:22.784Z,99.90
2018-03-07T21:01:51.654Z,99.90
2018-03-07T21:04:20.541Z,99.90
2018-03-07T21:06:50.170Z,99.90
2018-03-07T21:09:19.032Z,99.90
2018-03-07T21:11:47.885Z,99.90
2018-03-07T21:14:17.523Z,99.90
2018-03-07T21:16:46.378Z,99.90
2018-03-07T21:19:15.265Z,99.90
2018-03-07T21:21:44.121Z,99.90
2018-03-07T21:24:12.975Z,99.90
2018-03-07T21:26:42.212Z,99.90
2018-03-07T21:29:11.076Z,99.90
2018-03-07T21:31:39.931Z,99.90
2018-03-07T21:34:09.559Z,99.90
2018-03-07T21:36:38.403Z,99.90
2018-03-07T21:39:07.286Z,99.90
2018-03-07T21:41:36.114Z,99.90
2018-03-07T21:44:05.190Z,99.90
2018-03-07T21:46:34.834Z,99.90
2018-03-07T21:49:03.695Z,99.90
2018-03-07T21:51:33.334Z,99.90
2018-03-07T21:54:02.419Z,99.90
2018-03-07T21:56:31.258Z,99.90
2018-03-07T21:59:00.903Z,99.90
2018-03-07T22:01:29.727Z,99.90
2018-03-07T22:03:58.598Z,99.90
2018-03-07T22:06:27.457Z,99.90
2018-03-07T22:08:57.090Z,99.90
2018-03-07T22:11:25.926Z,99.90
2018-03-07T22:13:54.820Z,99.90
2018-03-07T22:16:23.818Z,99.90
2018-03-07T22:18:52.610Z,99.90
2018-03-07T22:21:22.265Z,99.90
2018-03-07T22:23:51.126Z,99.90
2018-03-07T22:26:20.731Z,99.90
2018-03-07T22:28:50.351Z,99.90
2018-03-07T22:31:19.214Z,99.90
2018-03-07T22:33:48.857Z,99.90
2018-03-07T22:36:18.354Z,99.90
2018-03-07T22:38:47.201Z,99.90
2018-03-07T22:41:16.034Z,99.90
2018-03-07T22:43:44.876Z,99.90
2018-03-07T22:46:14.447Z,99.90
2018-03-07T22:48:43.281Z,99.90
2018-03-07T22:51:12.898Z,99.90
2018-03-07T22:53:42.517Z,99.90
2018-03-07T22:56:12.457Z,99.90
2018-03-07T22:58:41.306Z,99.90
2018-03-07T23:01:10.947Z,99.90
2018-03-07T23:03:39.796Z,99.90
2018-03-07T23:06:08.623Z,99.90
2018-03-07T23:08:37.499Z,99.90
2018-03-07T23:11:06.356Z,99.90
2018-03-07T23:13:35.969Z,99.90
2018-03-07T23:16:05.579Z,99.90
2018-03-07T23:18:35.224Z,99.90
2018-03-07T23:21:04.051Z,99.90
2018-03-07T23:23:32.893Z,99.90
2018-03-07T23:26:01.725Z,99.90
2018-03-07T23:28:30.543Z,99.90
2018-03-07T23:31:00.154Z,99.90
2018-03-07T23:33:29.758Z,99.90
2018-03-07T23:35:59.394Z,99.90
2018-03-07T23:38:28.281Z,99.90
2018-03-07T23:40:57.839Z,99.90
2018-03-07T23:43:26.678Z,99.90
2018-03-07T23:45:55.530Z,99.90
2018-03-07T23:48:25.162Z,99.90
2018-03-07T23:50:54.026Z,99.90
2018-03-07T23:53:23.671Z,99.90
2018-03-07T23:55:52.546Z,99.90
2018-03-07T23:58:21.363Z,99.90
